sim
Sign-in with your pilot id or email,
or register
Callsign
Passwort

Schedule Details

Flight Number: OEC10651
Departure: Munich Airport (EDDM) at 15:45 UTC
Arrival: Copenhagen Airport (EKCH) at 17:03 UTC
Route: INPU2N INPUD Y102 UPALA M726 KEMES/N0446F340 M726 LASGA/N0444F330 DCT EMBOX DCT NOBRI/N0444F340 M726 ROSOK Q296 MONAK MONA2D

Weather Information
Getting current METAR information for EDDM 241950Z 06005KT CAVOK 16/14 Q1003 NOSIG
Getting current METAR information for EKCH 241950Z AUTO 19003KT 9999 NCD 13/08 Q1003 NOSIG

Schedule Frequency

Route Map